Time;durP1;ratioP1;P1;durP2;ratioP2;P2;SDS_P1;SDS_P2;PMS_P1;PMS_P2;Temp;Humidity;BMP_temperature;BMP_pressure;BME280_temperature;BME280_humidity;BME280_pressure;Samples;Min_cycle;Max_cycle;Signal;HPM_P1;HPM_P2
2024/03/19 00:01:39;;;;;;;12.95;5.13;;;6.00;99.90;;;;;;5120306;28;20031;-64
2024/03/19 00:04:05;;;;;;;11.20;5.07;;;6.10;99.90;;;;;;5120829;28;20490;-64
2024/03/19 00:06:34;;;;;;;7.68;4.07;;;6.10;99.90;;;;;;5106067;28;20043;-64
2024/03/19 00:08:59;;;;;;;8.38;3.60;;;6.10;99.90;;;;;;5121540;27;20039;-64
2024/03/19 00:11:25;;;;;;;12.88;4.60;;;6.10;99.90;;;;;;5125469;27;20035;-64
2024/03/19 00:13:51;;;;;;;12.38;4.47;;;6.10;99.90;;;;;;5124996;27;20290;-64
2024/03/19 00:16:17;;;;;;;14.15;5.25;;;6.20;99.90;;;;;;5122635;27;20599;-64
2024/03/19 00:18:42;;;;;;;6.00;3.30;;;6.20;99.90;;;;;;5122206;27;20056;-64
2024/03/19 00:21:10;;;;;;;10.38;4.35;;;6.20;99.90;;;;;;5113660;27;20485;-64
2024/03/19 00:23:36;;;;;;;11.18;4.43;;;6.20;99.90;;;;;;5124237;27;20176;-64
2024/03/19 00:26:02;;;;;;;8.55;3.88;;;6.20;99.90;;;;;;5124568;27;20043;-64
2024/03/19 00:28:27;;;;;;;11.88;4.07;;;6.30;99.90;;;;;;5123999;27;20032;-64
2024/03/19 00:30:55;;;;;;;8.15;3.78;;;6.30;99.90;;;;;;5123368;27;20031;-64
2024/03/19 00:33:21;;;;;;;10.00;3.67;;;6.30;99.90;;;;;;5123437;27;20067;-64
2024/03/19 00:35:47;;;;;;;12.30;3.72;;;6.40;99.90;;;;;;5123786;27;20043;-64
2024/03/19 00:38:13;;;;;;;13.73;5.40;;;6.40;99.90;;;;;;5124357;27;20154;-64
2024/03/19 00:40:40;;;;;;;10.35;3.53;;;6.30;99.90;;;;;;5124964;27;20133;-64
2024/03/19 00:43:07;;;;;;;8.85;3.72;;;6.50;99.90;;;;;;5125331;27;20051;-64
2024/03/19 00:45:33;;;;;;;9.95;3.40;;;6.40;99.90;;;;;;5122644;27;20058;-64
2024/03/19 00:47:59;;;;;;;17.08;4.63;;;6.40;99.90;;;;;;5124199;27;20040;-64
2024/03/19 00:50:24;;;;;;;11.93;4.38;;;6.40;99.90;;;;;;5126582;27;20035;-64
2024/03/19 00:52:51;;;;;;;18.95;4.40;;;6.50;99.90;;;;;;5127186;27;20562;-64
2024/03/19 00:55:16;;;;;;;13.52;3.85;;;6.50;99.90;;;;;;5123824;27;20365;-64
2024/03/19 00:57:42;;;;;;;15.43;4.38;;;6.50;99.90;;;;;;5127846;27;20041;-64
2024/03/19 01:00:10;;;;;;;13.52;3.90;;;6.50;99.90;;;;;;5121662;27;20489;-64
2024/03/19 01:02:38;;;;;;;11.02;4.70;;;6.50;99.90;;;;;;5124505;27;20051;-64
2024/03/19 01:05:04;;;;;;;17.05;5.28;;;6.60;99.90;;;;;;5123436;27;20047;-64
2024/03/19 01:07:30;;;;;;;14.00;4.70;;;6.50;99.90;;;;;;5123672;27;20048;-64
2024/03/19 01:09:56;;;;;;;9.00;5.05;;;6.60;99.90;;;;;;5155806;27;20039;-64
2024/03/19 01:12:22;;;;;;;12.88;5.40;;;6.60;99.90;;;;;;5124375;27;20047;-64
2024/03/19 01:14:48;;;;;;;9.50;4.53;;;6.70;99.90;;;;;;5122910;27;20035;-64
2024/03/19 01:17:13;;;;;;;8.07;4.63;;;6.70;99.90;;;;;;5126174;27;20035;-64
2024/03/19 01:19:39;;;;;;;10.85;5.25;;;6.70;99.90;;;;;;5124193;27;20126;-64
2024/03/19 01:22:06;;;;;;;8.30;3.97;;;6.80;99.90;;;;;;5126034;27;20043;-64
2024/03/19 01:24:33;;;;;;;9.52;5.32;;;6.70;99.90;;;;;;5126531;27;20054;-64
2024/03/19 01:26:58;;;;;;;12.20;5.50;;;6.80;99.90;;;;;;5123281;27;20493;-64
2024/03/19 01:29:24;;;;;;;8.88;4.82;;;6.70;99.90;;;;;;5125429;27;20046;-64
2024/03/19 01:31:49;;;;;;;10.27;4.13;;;6.70;99.90;;;;;;5125407;27;20493;-64
2024/03/19 01:34:15;;;;;;;8.88;4.65;;;6.70;99.90;;;;;;5125167;27;20035;-64
2024/03/19 01:36:40;;;;;;;9.25;4.40;;;6.70;99.90;;;;;;5121984;27;20054;-64
2024/03/19 01:39:09;;;;;;;9.02;4.53;;;6.70;99.90;;;;;;5123255;27;20375;-64
2024/03/19 01:41:35;;;;;;;12.98;5.05;;;6.70;99.90;;;;;;5124970;27;20081;-64
2024/03/19 01:44:00;;;;;;;8.98;4.72;;;6.70;99.90;;;;;;5124235;27;20071;-64
2024/03/19 01:46:28;;;;;;;13.00;4.45;;;6.70;99.90;;;;;;5124367;27;20410;-64
2024/03/19 01:48:55;;;;;;;12.48;5.72;;;6.70;99.90;;;;;;5121996;27;20035;-64
2024/03/19 01:51:22;;;;;;;9.98;5.28;;;6.80;99.90;;;;;;5125655;27;20396;-64
2024/03/19 01:53:50;;;;;;;11.02;5.57;;;6.80;99.90;;;;;;5108743;27;20151;-64
2024/03/19 01:56:17;;;;;;;9.00;5.00;;;6.80;99.90;;;;;;5123464;27;20561;-64
2024/03/19 01:58:48;;;;;;;10.60;5.15;;;6.80;99.90;;;;;;5121615;27;20051;-64
2024/03/19 02:01:15;;;;;;;14.13;7.55;;;6.80;99.90;;;;;;5122701;27;20089;-64
2024/03/19 02:03:48;;;;;;;14.73;6.20;;;6.80;99.90;;;;;;5118949;27;20134;-64
2024/03/19 02:06:15;;;;;;;15.88;6.95;;;6.90;99.90;;;;;;5121842;27;20031;-64
2024/03/19 02:09:13;;;;;;;9.20;5.97;;;6.90;99.90;;;;;;5123537;27;20485;-64
2024/03/19 02:11:40;;;;;;;16.70;7.22;;;6.90;99.90;;;;;;5125151;27;20357;-64
2024/03/19 02:14:06;;;;;;;14.38;8.02;;;7.00;99.90;;;;;;5121818;27;20088;-64
2024/03/19 02:16:32;;;;;;;12.60;6.70;;;7.10;99.90;;;;;;5122698;27;20039;-64
2024/03/19 02:19:01;;;;;;;13.30;7.45;;;7.10;99.90;;;;;;5121191;27;20051;-64
2024/03/19 02:21:27;;;;;;;15.68;7.70;;;7.10;99.90;;;;;;5122564;27;20542;-64
2024/03/19 02:23:56;;;;;;;14.07;8.18;;;7.20;99.90;;;;;;5121402;27;20043;-64
2024/03/19 02:26:26;;;;;;;14.70;7.55;;;7.20;99.90;;;;;;5153689;27;20494;-64
2024/03/19 02:28:53;;;;;;;15.75;7.07;;;7.20;99.90;;;;;;5123913;27;20043;-64
2024/03/19 02:31:19;;;;;;;12.82;7.85;;;7.20;99.90;;;;;;5122981;27;20043;-64
2024/03/19 02:33:45;;;;;;;18.33;9.45;;;7.20;99.90;;;;;;5108654;27;20045;-64
2024/03/19 02:36:11;;;;;;;19.00;10.05;;;7.20;99.90;;;;;;5122309;27;20384;-64
2024/03/19 02:38:36;;;;;;;16.65;10.32;;;7.30;99.90;;;;;;5124033;27;20452;-64
2024/03/19 02:41:03;;;;;;;14.07;9.63;;;7.30;99.90;;;;;;5122468;27;20069;-64
2024/03/19 02:43:29;;;;;;;17.63;9.73;;;7.30;99.90;;;;;;5122872;27;20067;-64
2024/03/19 02:45:55;;;;;;;19.65;9.48;;;7.40;99.90;;;;;;5108239;27;20116;-64
2024/03/19 02:48:21;;;;;;;12.13;8.48;;;7.40;99.90;;;;;;5120294;27;20618;-64
2024/03/19 02:50:47;;;;;;;18.25;10.73;;;7.40;99.90;;;;;;5152328;27;20121;-64
2024/03/19 02:53:12;;;;;;;15.60;9.85;;;7.40;99.90;;;;;;5124669;27;20118;-64
2024/03/19 02:55:38;;;;;;;16.48;9.52;;;7.40;99.90;;;;;;5120111;27;20088;-64
2024/03/19 02:58:04;;;;;;;14.85;8.63;;;7.40;99.90;;;;;;5122727;27;20043;-64
2024/03/19 03:00:29;;;;;;;15.48;9.13;;;7.40;99.90;;;;;;5125246;28;20548;-64
2024/03/19 03:02:55;;;;;;;13.20;9.00;;;7.40;99.90;;;;;;5123580;28;20042;-64
2024/03/19 03:05:20;;;;;;;15.77;8.30;;;7.40;99.90;;;;;;5123697;28;20042;-64
2024/03/19 03:07:46;;;;;;;15.60;9.95;;;7.40;99.90;;;;;;5122193;28;20074;-64
2024/03/19 03:10:12;;;;;;;16.73;8.90;;;7.40;99.90;;;;;;5123163;27;20058;-64
2024/03/19 03:12:37;;;;;;;16.15;8.95;;;7.40;99.90;;;;;;5123409;27;20588;-64
2024/03/19 03:15:04;;;;;;;22.17;12.25;;;7.40;99.90;;;;;;5120367;27;20039;-64
2024/03/19 03:17:31;;;;;;;22.30;11.43;;;7.40;99.90;;;;;;5124760;27;20053;-64
2024/03/19 03:19:57;;;;;;;23.27;12.52;;;7.50;99.90;;;;;;5151510;27;20043;-64
2024/03/19 03:22:23;;;;;;;17.88;12.07;;;7.50;99.90;;;;;;5124567;27;20079;-64
2024/03/19 03:24:48;;;;;;;20.80;12.63;;;7.60;99.90;;;;;;5123229;27;20077;-64
2024/03/19 03:27:14;;;;;;;24.55;13.35;;;7.50;99.90;;;;;;5106927;28;20473;-64
2024/03/19 03:29:40;;;;;;;20.73;12.98;;;7.60;99.90;;;;;;5127030;27;20058;-64
2024/03/19 03:32:07;;;;;;;22.48;13.98;;;7.60;99.90;;;;;;5119629;28;20038;-64
2024/03/19 03:34:35;;;;;;;24.42;13.70;;;7.60;99.90;;;;;;5125310;27;20481;-64
2024/03/19 03:37:01;;;;;;;20.30;15.07;;;7.70;99.90;;;;;;5121902;27;20039;-64
2024/03/19 03:39:27;;;;;;;23.95;13.98;;;7.70;99.90;;;;;;5121430;28;20035;-64
2024/03/19 03:41:52;;;;;;;24.15;14.05;;;7.80;99.90;;;;;;5151373;27;20062;-64
2024/03/19 03:44:19;;;;;;;22.52;14.63;;;7.80;99.90;;;;;;5125667;27;20031;-64
2024/03/19 03:46:44;;;;;;;25.20;14.55;;;7.80;99.90;;;;;;5155528;27;20054;-64
2024/03/19 03:49:10;;;;;;;20.77;13.60;;;7.90;99.90;;;;;;5122028;27;20043;-64
2024/03/19 03:51:36;;;;;;;21.77;14.13;;;7.80;99.90;;;;;;5127106;27;20031;-64
2024/03/19 03:54:02;;;;;;;22.25;13.35;;;7.90;99.90;;;;;;5124231;27;20055;-64
2024/03/19 03:56:28;;;;;;;24.52;14.52;;;7.90;99.90;;;;;;5125177;27;20738;-64
2024/03/19 03:58:54;;;;;;;21.23;14.20;;;7.90;99.90;;;;;;5128701;27;20425;-64
2024/03/19 04:01:20;;;;;;;25.60;14.52;;;7.90;99.90;;;;;;5126737;27;20068;-64
2024/03/19 04:03:46;;;;;;;22.42;13.95;;;8.00;99.90;;;;;;5122019;27;20917;-64
2024/03/19 04:06:12;;;;;;;20.35;13.40;;;8.00;99.90;;;;;;5127404;27;20096;-64
2024/03/19 04:08:39;;;;;;;22.27;15.00;;;8.00;99.90;;;;;;5109821;27;20401;-64
2024/03/19 04:11:04;;;;;;;23.35;13.82;;;8.00;99.90;;;;;;5152190;27;20043;-64
2024/03/19 04:13:30;;;;;;;20.90;13.27;;;8.00;99.90;;;;;;5127435;27;20397;-64
2024/03/19 04:15:56;;;;;;;19.75;12.75;;;8.00;99.90;;;;;;5124949;27;20039;-64
2024/03/19 04:18:22;;;;;;;18.13;12.60;;;8.00;99.90;;;;;;5125147;27;20524;-64
2024/03/19 04:20:50;;;;;;;18.10;13.23;;;8.00;99.90;;;;;;5122082;27;20498;-64
2024/03/19 04:23:16;;;;;;;19.10;12.52;;;8.00;99.90;;;;;;5127052;27;20443;-64
2024/03/19 04:25:42;;;;;;;20.52;12.98;;;8.00;99.90;;;;;;5124959;27;20042;-64
2024/03/19 04:28:07;;;;;;;18.25;12.30;;;8.00;99.90;;;;;;5122619;27;20047;-64
2024/03/19 04:30:33;;;;;;;20.33;11.90;;;8.00;99.90;;;;;;5123435;27;20038;-64
2024/03/19 04:32:58;;;;;;;18.83;12.35;;;8.10;99.90;;;;;;5154691;27;20083;-64
2024/03/19 04:35:24;;;;;;;16.77;11.95;;;8.10;99.90;;;;;;5110167;27;20500;-64
2024/03/19 04:37:50;;;;;;;18.02;11.07;;;8.10;99.90;;;;;;5153464;27;20036;-64
2024/03/19 04:40:16;;;;;;;17.85;11.88;;;8.10;99.90;;;;;;5124552;27;20048;-64
2024/03/19 04:42:42;;;;;;;22.45;12.35;;;8.10;99.90;;;;;;5123257;27;20251;-64
2024/03/19 04:45:09;;;;;;;14.57;11.30;;;8.10;99.90;;;;;;5122231;27;20122;-64
2024/03/19 04:47:34;;;;;;;17.80;11.57;;;8.10;99.90;;;;;;5123187;27;20054;-65
2024/03/19 04:50:00;;;;;;;17.65;11.20;;;8.10;99.90;;;;;;5125780;27;20478;-64
2024/03/19 04:52:26;;;;;;;16.27;10.95;;;8.20;99.90;;;;;;5124354;27;20077;-64
2024/03/19 04:54:52;;;;;;;22.02;12.23;;;8.20;99.90;;;;;;5123805;27;20424;-64
2024/03/19 04:57:18;;;;;;;20.15;12.02;;;8.20;99.90;;;;;;5123117;27;20035;-64
2024/03/19 04:59:45;;;;;;;16.65;11.88;;;8.20;99.90;;;;;;5152233;27;20508;-64
2024/03/19 05:02:10;;;;;;;18.65;11.57;;;8.20;99.90;;;;;;5150433;27;20046;-64
2024/03/19 05:04:36;;;;;;;14.40;10.43;;;8.20;99.90;;;;;;5121295;27;20047;-64
2024/03/19 05:07:03;;;;;;;17.92;10.63;;;8.20;99.90;;;;;;5120609;27;20096;-64
2024/03/19 05:09:28;;;;;;;14.25;9.15;;;8.30;99.90;;;;;;5150856;27;20069;-64
2024/03/19 05:11:54;;;;;;;16.83;9.75;;;8.30;99.90;;;;;;5119551;27;20079;-64
2024/03/19 05:14:20;;;;;;;15.80;10.15;;;8.30;99.90;;;;;;5119586;27;20035;-64
2024/03/19 05:16:46;;;;;;;14.48;9.80;;;8.30;99.90;;;;;;5118725;27;21883;-64
2024/03/19 05:19:12;;;;;;;14.77;9.13;;;8.30;99.90;;;;;;5119251;27;20603;-64
2024/03/19 05:21:38;;;;;;;15.52;9.30;;;8.30;99.90;;;;;;5118902;27;20050;-64
2024/03/19 05:24:05;;;;;;;13.40;8.95;;;8.30;99.90;;;;;;5121669;27;20062;-64
2024/03/19 05:26:30;;;;;;;17.23;10.77;;;8.40;99.90;;;;;;5149087;27;20057;-65
2024/03/19 05:28:56;;;;;;;16.65;9.95;;;8.40;99.90;;;;;;5123191;27;20039;-64
2024/03/19 05:31:27;;;;;;;16.95;9.63;;;8.40;99.90;;;;;;5120567;27;20485;-64
2024/03/19 05:33:54;;;;;;;14.73;9.68;;;8.40;99.90;;;;;;5135260;27;20407;-65
2024/03/19 05:36:21;;;;;;;11.95;8.50;;;8.40;99.90;;;;;;5117489;27;20042;-65
2024/03/19 05:38:47;;;;;;;16.10;9.23;;;8.50;99.90;;;;;;5114833;27;20125;-64
2024/03/19 05:41:14;;;;;;;13.60;9.15;;;8.40;99.90;;;;;;5120273;27;20032;-65
2024/03/19 05:43:48;;;;;;;15.43;8.30;;;8.50;99.90;;;;;;5119961;27;20047;-65
2024/03/19 05:46:14;;;;;;;13.20;8.63;;;8.50;99.90;;;;;;5120755;27;20067;-65
2024/03/19 05:48:39;;;;;;;14.88;8.55;;;8.50;99.90;;;;;;5119674;27;20066;-65
2024/03/19 05:51:09;;;;;;;15.98;8.65;;;8.50;99.90;;;;;;5118163;27;20062;-65
2024/03/19 05:53:36;;;;;;;14.13;9.25;;;8.60;99.90;;;;;;5135350;27;20050;-65
2024/03/19 05:56:04;;;;;;;17.23;9.75;;;8.70;99.90;;;;;;5120497;27;20039;-65
2024/03/19 05:58:30;;;;;;;12.45;8.50;;;8.60;99.90;;;;;;5136055;27;20047;-65
2024/03/19 06:00:55;;;;;;;16.95;8.63;;;8.70;99.90;;;;;;5116219;27;20397;-65
2024/03/19 06:03:22;;;;;;;14.98;8.75;;;8.70;99.90;;;;;;5136266;27;20198;-65
2024/03/19 06:05:58;;;;;;;16.38;9.70;;;8.60;99.90;;;;;;5118425;27;20496;-65
2024/03/19 06:08:27;;;;;;;14.50;9.60;;;8.70;99.90;;;;;;5117356;27;20047;-65
2024/03/19 06:10:52;;;;;;;19.40;8.73;;;8.80;99.90;;;;;;5115994;27;20711;-64
2024/03/19 06:13:18;;;;;;;12.23;8.73;;;8.70;99.90;;;;;;5117300;27;20043;-64
2024/03/19 06:15:44;;;;;;;13.23;8.95;;;8.80;99.90;;;;;;5121667;27;20038;-65
2024/03/19 06:18:10;;;;;;;13.52;9.20;;;8.80;99.90;;;;;;5120660;27;20035;-65
2024/03/19 06:20:36;;;;;;;12.27;8.73;;;8.80;99.90;;;;;;5116833;27;20083;-65
2024/03/19 06:23:02;;;;;;;15.35;9.38;;;8.80;99.90;;;;;;5148575;27;20043;-64
2024/03/19 06:25:27;;;;;;;15.35;9.57;;;8.80;99.90;;;;;;5118968;27;20103;-65
2024/03/19 06:27:53;;;;;;;14.68;9.50;;;8.90;99.90;;;;;;5119696;27;20403;-65
2024/03/19 06:30:19;;;;;;;13.40;9.00;;;8.90;99.90;;;;;;5148379;27;20062;-65
2024/03/19 06:32:45;;;;;;;12.32;9.15;;;8.90;99.90;;;;;;5123752;27;20035;-65
2024/03/19 06:35:14;;;;;;;14.32;9.90;;;8.90;99.90;;;;;;5121234;27;20043;-64
2024/03/19 06:37:42;;;;;;;15.40;9.38;;;8.90;99.90;;;;;;5150983;27;20047;-65
2024/03/19 06:40:10;;;;;;;14.73;9.95;;;9.00;99.90;;;;;;5149044;27;20039;-64
2024/03/19 06:42:36;;;;;;;17.15;9.95;;;9.10;99.90;;;;;;5130368;27;20190;-65
2024/03/19 06:45:08;;;;;;;16.75;9.95;;;9.10;99.90;;;;;;5116190;27;20051;-65
2024/03/19 06:47:35;;;;;;;15.68;9.55;;;9.20;99.90;;;;;;5115176;27;20050;-65
2024/03/19 06:50:06;;;;;;;13.50;9.88;;;9.30;99.90;;;;;;5113580;27;20046;-65
2024/03/19 06:52:35;;;;;;;13.90;9.27;;;9.30;99.90;;;;;;5121222;27;20081;-65
2024/03/19 06:55:01;;;;;;;12.88;8.82;;;9.50;99.90;;;;;;5147965;27;20035;-65
2024/03/19 06:57:28;;;;;;;10.93;8.20;;;9.60;99.90;;;;;;5120180;27;20043;-65
2024/03/19 06:59:54;;;;;;;13.80;9.57;;;9.70;99.90;;;;;;5119595;28;20974;-65
2024/03/19 07:02:20;;;;;;;14.27;9.10;;;9.80;99.90;;;;;;5122748;27;20035;-65
2024/03/19 07:04:47;;;;;;;13.95;8.52;;;9.90;99.90;;;;;;5116972;27;20040;-65
2024/03/19 07:07:17;;;;;;;10.48;7.55;;;10.00;99.90;;;;;;5121409;27;20044;-65
2024/03/19 07:09:45;;;;;;;9.88;7.53;;;10.10;99.90;;;;;;5151173;27;20681;-65
2024/03/19 07:12:11;;;;;;;12.25;7.40;;;10.20;99.90;;;;;;5116201;27;20042;-65
2024/03/19 07:14:37;;;;;;;12.15;7.22;;;10.30;99.90;;;;;;5117890;28;20203;-65
2024/03/19 07:17:03;;;;;;;9.02;6.82;;;10.40;99.90;;;;;;5115297;27;20125;-65
2024/03/19 07:19:30;;;;;;;10.18;6.68;;;10.50;99.90;;;;;;5151963;27;20043;-65
2024/03/19 07:21:56;;;;;;;9.88;6.05;;;10.60;99.90;;;;;;5124020;27;20857;-65
2024/03/19 07:24:22;;;;;;;11.35;7.07;;;10.60;99.90;;;;;;5126963;27;20130;-65
2024/03/19 07:26:47;;;;;;;11.45;7.57;;;10.70;99.90;;;;;;5121759;27;20496;-65
2024/03/19 07:29:13;;;;;;;10.38;7.32;;;10.80;99.90;;;;;;5121957;27;20039;-65
2024/03/19 07:31:42;;;;;;;10.27;6.32;;;10.80;99.90;;;;;;5120572;27;20497;-65
2024/03/19 07:34:08;;;;;;;10.52;6.07;;;10.80;99.90;;;;;;5123578;27;20075;-65
2024/03/19 07:36:35;;;;;;;10.85;6.57;;;10.90;99.90;;;;;;5125509;27;20050;-65
2024/03/19 07:39:01;;;;;;;11.18;6.03;;;10.90;99.90;;;;;;5119841;27;20047;-65
2024/03/19 07:41:26;;;;;;;10.43;6.72;;;10.90;99.90;;;;;;5123360;27;20038;-65
2024/03/19 07:43:52;;;;;;;10.40;5.97;;;10.90;99.90;;;;;;5123845;27;20066;-65
2024/03/19 07:46:18;;;;;;;9.40;5.70;;;10.80;99.90;;;;;;5122841;27;20032;-65
2024/03/19 07:48:43;;;;;;;8.50;6.32;;;10.80;99.90;;;;;;5123158;27;20043;-65
2024/03/19 07:51:09;;;;;;;12.68;6.22;;;10.80;99.90;;;;;;5121751;27;20130;-65
2024/03/19 07:53:35;;;;;;;7.95;5.68;;;10.80;99.90;;;;;;5126058;27;20043;-65
2024/03/19 07:56:01;;;;;;;7.38;5.45;;;10.80;99.90;;;;;;5121666;27;20040;-65
2024/03/19 07:58:27;;;;;;;8.18;5.70;;;10.80;99.90;;;;;;5120894;27;20043;-65
2024/03/19 08:00:53;;;;;;;7.45;5.25;;;10.80;99.90;;;;;;5125663;27;20119;-65
2024/03/19 08:03:18;;;;;;;8.88;5.72;;;10.70;99.90;;;;;;5123188;27;20039;-65
2024/03/19 08:05:45;;;;;;;12.10;6.20;;;10.80;99.90;;;;;;5121862;27;20490;-65
2024/03/19 08:08:12;;;;;;;9.52;6.40;;;10.70;99.90;;;;;;5121790;27;20085;-65
2024/03/19 08:10:38;;;;;;;8.75;6.05;;;10.70;99.90;;;;;;5122178;27;20047;-65
2024/03/19 08:13:03;;;;;;;8.30;6.15;;;10.80;99.90;;;;;;5123477;27;20039;-65
2024/03/19 08:15:32;;;;;;;11.50;6.13;;;10.80;99.90;;;;;;5124444;27;20661;-65
2024/03/19 08:17:58;;;;;;;10.40;6.28;;;10.80;99.90;;;;;;5121057;27;20150;-65
2024/03/19 08:20:23;;;;;;;10.95;6.57;;;10.70;99.90;;;;;;5124781;27;20160;-65
2024/03/19 08:22:49;;;;;;;10.57;6.90;;;10.80;99.90;;;;;;5122911;27;20088;-65
2024/03/19 08:25:15;;;;;;;7.80;6.07;;;10.90;99.90;;;;;;5119344;27;20043;-65
2024/03/19 08:27:41;;;;;;;8.82;6.90;;;10.90;99.90;;;;;;5125240;27;20046;-65
2024/03/19 08:30:08;;;;;;;9.82;7.38;;;10.90;99.90;;;;;;5121610;27;20461;-65
2024/03/19 08:32:34;;;;;;;9.45;7.00;;;10.90;99.90;;;;;;5120712;27;20046;-65
2024/03/19 08:35:01;;;;;;;8.82;7.20;;;11.00;99.90;;;;;;5122242;27;20043;-65
2024/03/19 08:37:27;;;;;;;12.98;6.57;;;11.00;99.90;;;;;;5123148;27;20043;-65
2024/03/19 08:39:53;;;;;;;11.00;6.90;;;11.00;99.90;;;;;;5123122;27;20512;-65
2024/03/19 08:42:19;;;;;;;10.27;6.68;;;11.00;99.90;;;;;;5124069;27;20050;-65
2024/03/19 08:44:44;;;;;;;10.57;6.20;;;11.10;99.90;;;;;;5119645;27;20441;-65
2024/03/19 08:47:10;;;;;;;9.95;6.50;;;11.10;99.90;;;;;;5120465;27;20087;-65
2024/03/19 08:49:36;;;;;;;8.60;5.90;;;11.10;99.90;;;;;;5121055;27;20114;-65
2024/03/19 08:52:01;;;;;;;11.00;5.78;;;11.20;99.90;;;;;;5126198;27;20471;-65
2024/03/19 08:54:29;;;;;;;9.80;6.25;;;11.20;99.90;;;;;;5123614;27;20111;-65
2024/03/19 08:56:54;;;;;;;9.10;6.38;;;11.30;99.90;;;;;;5120548;27;20048;-65
2024/03/19 08:59:20;;;;;;;9.55;5.80;;;11.30;99.90;;;;;;5119076;27;20516;-65
2024/03/19 09:01:46;;;;;;;8.48;5.57;;;11.50;99.90;;;;;;5125940;27;20520;-65
2024/03/19 09:04:11;;;;;;;8.98;6.13;;;11.50;99.90;;;;;;5125446;27;20069;-65
2024/03/19 09:06:37;;;;;;;9.38;5.88;;;11.60;99.90;;;;;;5119263;27;20076;-65
2024/03/19 09:09:03;;;;;;;8.38;6.03;;;11.70;99.90;;;;;;5120485;27;20035;-65
2024/03/19 09:11:31;;;;;;;8.40;5.72;;;11.70;99.90;;;;;;5119727;27;20492;-65
2024/03/19 09:14:00;;;;;;;9.02;5.57;;;11.90;99.90;;;;;;5121267;27;20035;-65
2024/03/19 09:16:26;;;;;;;7.38;5.13;;;12.00;99.90;;;;;;5122818;27;20081;-65
2024/03/19 09:18:52;;;;;;;6.85;5.45;;;12.10;99.90;;;;;;5120056;27;20035;-65
2024/03/19 09:21:18;;;;;;;7.97;5.38;;;12.10;99.90;;;;;;5117334;27;20032;-65
2024/03/19 09:23:44;;;;;;;9.30;5.25;;;12.20;99.90;;;;;;5120292;27;20043;-65
2024/03/19 09:26:10;;;;;;;7.43;4.82;;;12.30;99.90;;;;;;5124792;27;20042;-65
2024/03/19 09:28:35;;;;;;;7.22;4.65;;;12.40;99.90;;;;;;5154975;27;20079;-65
2024/03/19 09:31:01;;;;;;;7.57;5.05;;;12.60;99.90;;;;;;5120863;27;20047;-65
2024/03/19 09:33:28;;;;;;;6.13;4.28;;;12.70;99.90;;;;;;5121120;27;20069;-65
2024/03/19 09:35:54;;;;;;;6.95;4.25;;;12.70;99.90;;;;;;5119087;27;20662;-65
2024/03/19 09:38:20;;;;;;;7.97;4.93;;;12.80;99.90;;;;;;5117232;27;20047;-65
2024/03/19 09:40:56;;;;;;;7.97;5.13;;;13.20;99.90;;;;;;5153987;27;20055;-65
2024/03/19 09:43:23;;;;;;;7.20;4.25;;;13.00;99.90;;;;;;5124027;27;20066;-65
2024/03/19 09:45:50;;;;;;;4.85;4.22;;;13.10;99.90;;;;;;5117330;27;20169;-65
2024/03/19 09:48:16;;;;;;;5.82;3.72;;;13.20;99.90;;;;;;5119134;27;20044;-65
2024/03/19 09:50:43;;;;;;;5.35;3.63;;;13.40;99.90;;;;;;5122656;27;20240;-65
2024/03/19 09:53:17;;;;;;;5.88;3.10;;;13.60;99.90;;;;;;5123462;27;20035;-65
2024/03/19 09:55:44;;;;;;;4.25;3.30;;;13.70;99.90;;;;;;5120816;27;20058;-65
2024/03/19 09:58:12;;;;;;;6.50;3.65;;;13.80;99.90;;;;;;5119108;27;20043;-65
2024/03/19 10:00:39;;;;;;;4.25;2.97;;;14.00;99.90;;;;;;5154426;27;20127;-65
2024/03/19 10:03:05;;;;;;;3.38;2.90;;;14.10;99.90;;;;;;5122139;27;20043;-65
2024/03/19 10:05:31;;;;;;;5.93;3.45;;;14.20;99.90;;;;;;5118714;27;20038;-65
2024/03/19 10:07:57;;;;;;;4.93;2.60;;;14.30;99.90;;;;;;5120456;27;20504;-65
2024/03/19 10:10:24;;;;;;;4.50;2.97;;;14.40;99.90;;;;;;5118305;27;20108;-65
2024/03/19 10:12:50;;;;;;;4.75;2.95;;;14.30;99.90;;;;;;5120836;27;20041;-65
2024/03/19 10:15:20;;;;;;;6.90;3.50;;;14.30;99.90;;;;;;5116310;27;20035;-65
2024/03/19 10:17:49;;;;;;;6.25;2.95;;;14.30;99.90;;;;;;5123029;27;20070;-65
2024/03/19 10:20:18;;;;;;;4.43;2.88;;;14.20;99.90;;;;;;5117463;27;20516;-65
2024/03/19 10:22:47;;;;;;;4.72;2.38;;;14.30;99.90;;;;;;5117941;27;20089;-65
2024/03/19 10:25:14;;;;;;;4.00;2.08;;;14.20;99.90;;;;;;5120729;27;20047;-65
2024/03/19 10:27:47;;;;;;;4.82;2.05;;;14.20;99.90;;;;;;5123948;27;20478;-65
2024/03/19 10:30:15;;;;;;;4.20;1.90;;;14.30;99.90;;;;;;5120360;27;20142;-65
2024/03/19 10:32:42;;;;;;;3.75;2.15;;;14.30;99.90;;;;;;5121138;27;20035;-65
2024/03/19 10:35:19;;;;;;;4.40;2.08;;;14.20;99.90;;;;;;5119618;27;20039;-65
2024/03/19 10:37:49;;;;;;;2.28;2.00;;;14.20;99.90;;;;;;5119205;27;20050;-65
2024/03/19 10:40:17;;;;;;;4.07;2.47;;;14.20;99.90;;;;;;5118502;27;20047;-65
2024/03/19 10:42:44;;;;;;;4.85;2.53;;;14.20;99.90;;;;;;5122300;27;20091;-65
2024/03/19 10:45:21;;;;;;;3.83;2.70;;;14.20;99.90;;;;;;5121678;27;20061;-65
2024/03/19 10:47:48;;;;;;;4.88;2.58;;;14.20;99.90;;;;;;5117763;27;20050;-65
2024/03/19 10:50:15;;;;;;;3.38;2.33;;;14.20;99.90;;;;;;5118596;27;20092;-65
2024/03/19 10:53:10;;;;;;;2.50;2.15;;;14.40;99.90;;;;;;5126102;27;20027;-65
2024/03/19 10:55:38;;;;;;;4.00;2.25;;;14.30;99.90;;;;;;5119834;27;20039;-65
2024/03/19 10:58:08;;;;;;;4.00;2.45;;;14.40;99.90;;;;;;5118045;27;20126;-65
2024/03/19 11:00:40;;;;;;;3.85;2.50;;;14.50;99.90;;;;;;5120346;28;20054;-65
2024/03/19 11:03:06;;;;;;;5.53;2.80;;;14.40;99.90;;;;;;5119620;28;20092;-65
2024/03/19 11:05:33;;;;;;;4.82;2.35;;;14.50;99.90;;;;;;5119052;27;20043;-65
2024/03/19 11:07:59;;;;;;;4.55;2.80;;;14.60;99.90;;;;;;5119760;28;20477;-65
2024/03/19 11:10:30;;;;;;;5.13;2.97;;;14.60;99.90;;;;;;5117342;28;20031;-65
2024/03/19 11:13:17;;;;;;;6.85;4.00;;;14.70;99.90;;;;;;5120383;28;20047;-65
2024/03/19 11:15:44;;;;;;;5.63;3.22;;;14.80;99.90;;;;;;5153392;27;20043;-65
2024/03/19 11:18:13;;;;;;;4.18;2.55;;;14.90;99.90;;;;;;5102061;28;20070;-65
2024/03/19 11:20:47;;;;;;;5.57;2.95;;;14.90;99.90;;;;;;5150692;27;20504;-65
2024/03/19 11:23:19;;;;;;;5.90;2.67;;;14.90;99.90;;;;;;5118280;28;20050;-65
2024/03/19 11:25:47;;;;;;;3.85;2.75;;;14.90;99.90;;;;;;5151270;27;20530;-65
2024/03/19 11:28:24;;;;;;;4.78;2.88;;;15.00;99.90;;;;;;5134633;27;20046;-65
2024/03/19 11:30:54;;;;;;;3.33;2.13;;;14.90;99.90;;;;;;5120576;28;20038;-65
2024/03/19 11:33:20;;;;;;;2.67;2.05;;;14.90;99.90;;;;;;5120193;27;20036;-65
2024/03/19 11:35:50;;;;;;;5.80;3.85;;;14.90;99.90;;;;;;5120752;28;20039;-65
2024/03/19 11:38:16;;;;;;;5.38;2.60;;;14.90;99.90;;;;;;5117272;28;20167;-65
2024/03/19 11:40:42;;;;;;;3.65;2.75;;;14.90;99.90;;;;;;5116951;28;20286;-65
2024/03/19 11:43:16;;;;;;;6.72;3.55;;;14.90;99.90;;;;;;5122923;28;20195;-65
2024/03/19 11:45:47;;;;;;;6.72;2.90;;;14.80;99.90;;;;;;5121116;27;20558;-65
2024/03/19 11:48:18;;;;;;;3.78;2.75;;;14.80;99.90;;;;;;5154271;27;20047;-65
2024/03/19 11:50:53;;;;;;;6.82;2.78;;;14.90;99.90;;;;;;5121359;28;20043;-65
2024/03/19 11:53:20;;;;;;;5.30;2.95;;;14.90;99.90;;;;;;5152511;27;20482;-65
2024/03/19 11:55:47;;;;;;;4.85;3.50;;;14.90;99.90;;;;;;5120855;28;20401;-65
2024/03/19 11:58:13;;;;;;;5.07;3.72;;;14.90;99.90;;;;;;5153740;27;20493;-65
2024/03/19 12:00:39;;;;;;;5.47;3.60;;;14.90;99.90;;;;;;5117778;28;20071;-65
2024/03/19 12:03:05;;;;;;;5.10;2.97;;;15.00;99.90;;;;;;5121075;28;20082;-65
2024/03/19 12:05:31;;;;;;;4.68;2.80;;;15.00;99.90;;;;;;5118615;28;20031;-65
2024/03/19 12:08:00;;;;;;;4.85;3.35;;;15.10;99.90;;;;;;5123312;27;20039;-65
2024/03/19 12:10:26;;;;;;;8.10;3.65;;;15.20;99.90;;;;;;5117772;27;20043;-65
2024/03/19 12:12:55;;;;;;;5.60;4.50;;;15.40;99.90;;;;;;5116655;27;20351;-65
2024/03/19 12:15:23;;;;;;;5.00;3.40;;;15.40;99.90;;;;;;5123594;27;20039;-65
2024/03/19 12:17:50;;;;;;;7.78;3.22;;;15.50;99.90;;;;;;5120796;27;20039;-65
2024/03/19 12:20:18;;;;;;;6.68;3.47;;;15.40;99.90;;;;;;5123128;27;20397;-65
2024/03/19 12:22:48;;;;;;;5.40;3.45;;;15.50;99.90;;;;;;5131099;27;20051;-65
2024/03/19 12:25:15;;;;;;;6.75;4.10;;;15.60;99.90;;;;;;5122745;27;20038;-66
2024/03/19 12:27:42;;;;;;;7.10;4.25;;;15.70;99.90;;;;;;5124477;27;20150;-65
2024/03/19 12:30:17;;;;;;;6.50;4.03;;;15.70;99.90;;;;;;5116762;27;20043;-65
2024/03/19 12:32:59;;;;;;;9.20;4.00;;;15.70;99.90;;;;;;5120440;27;20078;-65
2024/03/19 12:35:28;;;;;;;4.30;3.70;;;15.80;99.90;;;;;;5125123;27;20035;-65
2024/03/19 12:37:54;;;;;;;5.97;3.95;;;15.90;99.90;;;;;;5123608;27;20043;-65
2024/03/19 12:40:22;;;;;;;5.28;3.70;;;15.90;99.90;;;;;;5118764;27;20051;-65
2024/03/19 12:42:49;;;;;;;5.85;3.92;;;15.80;99.90;;;;;;5105565;27;20051;-65
2024/03/19 12:45:15;;;;;;;5.78;4.32;;;15.80;99.90;;;;;;5118857;27;20035;-65